sensor_id;sensor_type;location;lat;lon;timestamp;pressure;altitude;pressure_sealevel;temperature;humidity
16120;BME280;12670;53.502;10.252;2023-02-22T00:01:18;101320.13;;;9.69;100.00
16120;BME280;12670;53.502;10.252;2023-02-22T00:04:28;101312.19;;;9.69;100.00
16120;BME280;12670;53.502;10.252;2023-02-22T00:07:32;101304.97;;;9.74;100.00
16120;BME280;12670;53.502;10.252;2023-02-22T00:10:36;101299.94;;;9.65;100.00
16120;BME280;12670;53.502;10.252;2023-02-22T00:13:40;101302.41;;;9.71;100.00
16120;BME280;12670;53.502;10.252;2023-02-22T00:16:45;101305.25;;;9.65;100.00
16120;BME280;12670;53.502;10.252;2023-02-22T00:19:48;101305.25;;;9.65;100.00
16120;BME280;12670;53.502;10.252;2023-02-22T00:22:53;101300.69;;;9.70;100.00
16120;BME280;12670;53.502;10.252;2023-02-22T00:25:57;101297.06;;;9.73;100.00
16120;BME280;12670;53.502;10.252;2023-02-22T00:29:00;101297.06;;;9.73;100.00
16120;BME280;12670;53.502;10.252;2023-02-22T00:32:03;101295.31;;;9.72;100.00
16120;BME280;12670;53.502;10.252;2023-02-22T00:35:06;101294.47;;;9.71;100.00
16120;BME280;12670;53.502;10.252;2023-02-22T00:38:12;101290.06;;;9.70;100.00
16120;BME280;12670;53.502;10.252;2023-02-22T00:41:15;101282.13;;;9.70;100.00
16120;BME280;12670;53.502;10.252;2023-02-22T00:44:19;101289.41;;;9.64;100.00
16120;BME280;12670;53.502;10.252;2023-02-22T00:47:22;101297.06;;;9.73;100.00
16120;BME280;12670;53.502;10.252;2023-02-22T00:50:28;101294.38;;;9.74;100.00
16120;BME280;12670;53.502;10.252;2023-02-22T00:53:32;101296.28;;;9.69;100.00
16120;BME280;12670;53.502;10.252;2023-02-22T00:56:35;101291.91;;;9.68;100.00
16120;BME280;12670;53.502;10.252;2023-02-22T00:59:38;101294.63;;;9.65;100.00
16120;BME280;12670;53.502;10.252;2023-02-22T01:02:42;101293.59;;;9.71;100.00
16120;BME280;12670;53.502;10.252;2023-02-22T01:05:45;101294.47;;;9.71;100.00
16120;BME280;12670;53.502;10.252;2023-02-22T01:08:49;101285.50;;;9.75;100.00
16120;BME280;12670;53.502;10.252;2023-02-22T01:11:52;101287.34;;;9.73;100.00
16120;BME280;12670;53.502;10.252;2023-02-22T01:14:56;101288.41;;;9.66;100.00
16120;BME280;12670;53.502;10.252;2023-02-22T01:17:59;101289.34;;;9.65;100.00
16120;BME280;12670;53.502;10.252;2023-02-22T01:21:02;101284.16;;;9.62;100.00
16120;BME280;12670;53.502;10.252;2023-02-22T01:24:06;101281.50;;;9.62;100.00
16120;BME280;12670;53.502;10.252;2023-02-22T01:27:10;101290.31;;;9.63;100.00
16120;BME280;12670;53.502;10.252;2023-02-22T01:30:13;101286.88;;;9.59;100.00
16120;BME280;12670;53.502;10.252;2023-02-22T01:33:16;101279.72;;;9.63;100.00
16120;BME280;12670;53.502;10.252;2023-02-22T01:36:19;101283.97;;;9.68;100.00
16120;BME280;12670;53.502;10.252;2023-02-22T01:39:24;101285.69;;;9.69;100.00
16120;BME280;12670;53.502;10.252;2023-02-22T01:42:27;101274.53;;;9.58;100.00
16120;BME280;12670;53.502;10.252;2023-02-22T01:45:42;101275.34;;;9.60;100.00
16120;BME280;12670;53.502;10.252;2023-02-22T01:48:47;101275.00;;;9.72;100.00
16120;BME280;12670;53.502;10.252;2023-02-22T01:51:53;101271.59;;;9.67;100.00
16120;BME280;12670;53.502;10.252;2023-02-22T01:54:59;101274.38;;;9.64;100.00
16120;BME280;12670;53.502;10.252;2023-02-22T01:58:02;101266.50;;;9.61;100.00
16120;BME280;12670;53.502;10.252;2023-02-22T02:01:07;101265.56;;;9.64;100.00
16120;BME280;12670;53.502;10.252;2023-02-22T02:04:13;101262.84;;;9.65;100.00
16120;BME280;12670;53.502;10.252;2023-02-22T02:07:19;101253.25;;;9.61;100.00
16120;BME280;12670;53.502;10.252;2023-02-22T02:10:24;101248.66;;;9.68;100.00
16120;BME280;12670;53.502;10.252;2023-02-22T02:13:27;101248.78;;;9.63;100.00
16120;BME280;12670;53.502;10.252;2023-02-22T02:16:36;101249.78;;;9.59;100.00
16120;BME280;12670;53.502;10.252;2023-02-22T02:19:45;101251.50;;;9.60;100.00
16120;BME280;12670;53.502;10.252;2023-02-22T02:22:56;101240.91;;;9.61;100.00
16120;BME280;12670;53.502;10.252;2023-02-22T02:33:32;101238.25;;;9.60;100.00
16120;BME280;12670;53.502;10.252;2023-02-22T02:36:42;101237.47;;;9.58;100.00
16120;BME280;12670;53.502;10.252;2023-02-22T02:39:49;101237.28;;;9.64;100.00
16120;BME280;12670;53.502;10.252;2023-02-22T02:42:58;101236.53;;;9.59;100.00
16120;BME280;12670;53.502;10.252;2023-02-22T02:46:05;101229.41;;;9.61;100.00
16120;BME280;12670;53.502;10.252;2023-02-22T02:49:12;101236.66;;;9.56;100.00
16120;BME280;12670;53.502;10.252;2023-02-22T02:52:18;101231.25;;;9.59;100.00
16120;BME280;12670;53.502;10.252;2023-02-22T02:55:23;101227.66;;;9.60;100.00
16120;BME280;12670;53.502;10.252;2023-02-22T02:58:25;101223.25;;;9.60;100.00
16120;BME280;12670;53.502;10.252;2023-02-22T03:01:44;101214.28;;;9.65;100.00
16120;BME280;12670;53.502;10.252;2023-02-22T03:05:02;101212.44;;;9.67;100.00
16120;BME280;12670;53.502;10.252;2023-02-22T03:08:12;101211.69;;;9.63;100.00
16120;BME280;12670;53.502;10.252;2023-02-22T03:11:20;101208.22;;;9.61;100.00
16120;BME280;12670;53.502;10.252;2023-02-22T03:14:28;101200.25;;;9.63;100.00
16120;BME280;12670;53.502;10.252;2023-02-22T03:17:43;101211.59;;;9.66;100.00
16120;BME280;12670;53.502;10.252;2023-02-22T03:20:57;101199.38;;;9.62;100.00
16120;BME280;12670;53.502;10.252;2023-02-22T03:24:07;101196.91;;;9.56;100.00
16120;BME280;12670;53.502;10.252;2023-02-22T03:27:13;101197.81;;;9.55;100.00
16120;BME280;12670;53.502;10.252;2023-02-22T03:30:25;101197.78;;;9.56;100.00
16120;BME280;12670;53.502;10.252;2023-02-22T03:33:32;101195.88;;;9.60;100.00
16120;BME280;12670;53.502;10.252;2023-02-22T03:36:42;101194.25;;;9.56;100.00
16120;BME280;12670;53.502;10.252;2023-02-22T03:39:48;101195.13;;;9.56;100.00
16120;BME280;12670;53.502;10.252;2023-02-22T03:42:55;101192.31;;;9.61;100.00
16120;BME280;12670;53.502;10.252;2023-02-22T03:46:00;101186.25;;;9.57;100.00
16120;BME280;12670;53.502;10.252;2023-02-22T03:49:09;101191.56;;;9.57;100.00
16120;BME280;12670;53.502;10.252;2023-02-22T03:52:15;101197.53;;;9.64;100.00
16120;BME280;12670;53.502;10.252;2023-02-22T03:55:18;101195.16;;;9.55;100.00
16120;BME280;12670;53.502;10.252;2023-02-22T03:58:21;101192.50;;;9.55;100.00
16120;BME280;12670;53.502;10.252;2023-02-22T04:01:25;101193.22;;;9.60;100.00
16120;BME280;12670;53.502;10.252;2023-02-22T04:04:28;101197.53;;;9.64;100.00
16120;BME280;12670;53.502;10.252;2023-02-22T04:07:32;101195.84;;;9.61;100.00
16120;BME280;12670;53.502;10.252;2023-02-22T04:10:34;101192.97;;;9.69;100.00
16120;BME280;12670;53.502;10.252;2023-02-22T04:13:38;101193.97;;;9.65;100.00
16120;BME280;12670;53.502;10.252;2023-02-22T04:16:40;101194.06;;;9.62;100.00
16120;BME280;12670;53.502;10.252;2023-02-22T04:19:43;101195.94;;;9.58;100.00
16120;BME280;12670;53.502;10.252;2023-02-22T04:22:47;101201.09;;;9.63;100.00
16120;BME280;12670;53.502;10.252;2023-02-22T04:25:50;101209.00;;;9.65;100.00
16120;BME280;12670;53.502;10.252;2023-02-22T04:28:52;101209.78;;;9.68;100.00
16120;BME280;12670;53.502;10.252;2023-02-22T04:31:55;101210.72;;;9.66;100.00
16120;BME280;12670;53.502;10.252;2023-02-22T04:34:58;101204.50;;;9.67;100.00
16120;BME280;12670;53.502;10.252;2023-02-22T04:38:02;101206.03;;;9.75;100.00
16120;BME280;12670;53.502;10.252;2023-02-22T04:41:05;101200.72;;;9.75;100.00
16120;BME280;12670;53.502;10.252;2023-02-22T04:44:07;101202.97;;;9.59;100.00
16120;BME280;12670;53.502;10.252;2023-02-22T04:47:10;101201.28;;;9.57;100.00
16120;BME280;12670;53.502;10.252;2023-02-22T04:50:14;101198.66;;;9.55;100.00
16120;BME280;12670;53.502;10.252;2023-02-22T04:53:18;101191.19;;;9.70;100.00
16120;BME280;12670;53.502;10.252;2023-02-22T04:56:21;101193.03;;;9.66;100.00
16120;BME280;12670;53.502;10.252;2023-02-22T04:59:24;101189.25;;;9.75;100.00
16120;BME280;12670;53.502;10.252;2023-02-22T05:02:27;101190.97;;;9.48;100.00
16120;BME280;12670;53.502;10.252;2023-02-22T05:05:30;101184.34;;;9.63;100.00
16120;BME280;12670;53.502;10.252;2023-02-22T05:08:34;101187.13;;;9.58;100.00
16120;BME280;12670;53.502;10.252;2023-02-22T05:11:36;101192.03;;;9.70;100.00
16120;BME280;12670;53.502;10.252;2023-02-22T05:14:39;101194.94;;;9.63;100.00
16120;BME280;12670;53.502;10.252;2023-02-22T05:17:41;101178.88;;;9.67;100.00
16120;BME280;12670;53.502;10.252;2023-02-22T05:20:44;101180.78;;;9.64;100.00
16120;BME280;12670;53.502;10.252;2023-02-22T05:23:48;101187.75;;;9.66;100.00
16120;BME280;12670;53.502;10.252;2023-02-22T05:26:51;101184.56;;;9.55;100.00
16120;BME280;12670;53.502;10.252;2023-02-22T05:29:54;101185.59;;;9.51;100.00
16120;BME280;12670;53.502;10.252;2023-02-22T05:32:57;101187.38;;;9.49;100.00
16120;BME280;12670;53.502;10.252;2023-02-22T05:36:00;101186.16;;;9.60;100.00
16120;BME280;12670;53.502;10.252;2023-02-22T05:39:04;101185.88;;;9.70;100.00
16120;BME280;12670;53.502;10.252;2023-02-22T05:42:07;101189.47;;;9.67;100.00
16120;BME280;12670;53.502;10.252;2023-02-22T05:45:12;101191.19;;;9.70;100.00
16120;BME280;12670;53.502;10.252;2023-02-22T05:48:15;101183.66;;;9.56;100.00
16120;BME280;12670;53.502;10.252;2023-02-22T05:51:17;101190.78;;;9.54;100.00
16120;BME280;12670;53.502;10.252;2023-02-22T05:54:22;101190.41;;;9.66;100.00
16120;BME280;12670;53.502;10.252;2023-02-22T05:57:24;101184.38;;;9.61;100.00
16120;BME280;12670;53.502;10.252;2023-02-22T06:00:29;101183.56;;;9.59;100.00
16120;BME280;12670;53.502;10.252;2023-02-22T06:03:32;101181.72;;;9.61;100.00
16120;BME280;12670;53.502;10.252;2023-02-22T06:06:34;101179.91;;;9.63;100.00
16120;BME280;12670;53.502;10.252;2023-02-22T06:09:38;101182.44;;;9.66;100.00
16120;BME280;12670;53.502;10.252;2023-02-22T06:12:41;101181.63;;;9.64;100.00
16120;BME280;12670;53.502;10.252;2023-02-22T06:15:44;101181.22;;;9.50;100.00
16120;BME280;12670;53.502;10.252;2023-02-22T06:18:47;101181.03;;;9.56;100.00
16120;BME280;12670;53.502;10.252;2023-02-22T06:21:50;101182.56;;;9.63;100.00
16120;BME280;12670;53.502;10.252;2023-02-22T06:24:54;101180.09;;;9.57;100.00
16120;BME280;12670;53.502;10.252;2023-02-22T06:27:57;101185.22;;;9.63;100.00
16120;BME280;12670;53.502;10.252;2023-02-22T06:31:00;101185.22;;;9.63;100.00
16120;BME280;12670;53.502;10.252;2023-02-22T06:34:02;101187.72;;;9.68;100.00
16120;BME280;12670;53.502;10.252;2023-02-22T06:37:05;101192.31;;;9.61;100.00
16120;BME280;12670;53.502;10.252;2023-02-22T06:40:11;101192.25;;;9.64;100.00
16120;BME280;12670;53.502;10.252;2023-02-22T06:43:14;101192.41;;;9.58;100.00
16120;BME280;12670;53.502;10.252;2023-02-22T06:46:17;101186.16;;;9.60;100.00
16120;BME280;12670;53.502;10.252;2023-02-22T06:49:21;101193.78;;;9.71;100.00
16120;BME280;12670;53.502;10.252;2023-02-22T06:52:24;101189.53;;;9.66;100.00
16120;BME280;12670;53.502;10.252;2023-02-22T06:55:31;101194.16;;;9.59;100.00
16120;BME280;12670;53.502;10.252;2023-02-22T06:58:34;101187.22;;;9.55;100.00
16120;BME280;12670;53.502;10.252;2023-02-22T07:01:39;101196.91;;;9.56;100.00
16120;BME280;12670;53.502;10.252;2023-02-22T07:04:44;101193.03;;;9.66;100.00
16120;BME280;12670;53.502;10.252;2023-02-22T07:07:48;101191.56;;;9.57;100.00
16120;BME280;12670;53.502;10.252;2023-02-22T07:10:52;101193.09;;;9.65;100.00
16120;BME280;12670;53.502;10.252;2023-02-22T07:13:55;101189.25;;;9.75;100.00
16120;BME280;12670;53.502;10.252;2023-02-22T07:16:57;101190.88;;;9.51;100.00
16120;BME280;12670;53.502;10.252;2023-02-22T07:20:00;101199.56;;;9.56;100.00
16120;BME280;12670;53.502;10.252;2023-02-22T07:23:03;101195.75;;;9.65;100.00
16120;BME280;12670;53.502;10.252;2023-02-22T07:26:07;101201.44;;;9.80;100.00
16120;BME280;12670;53.502;10.252;2023-02-22T07:29:10;101191.84;;;9.76;100.00
16120;BME280;12670;53.502;10.252;2023-02-22T07:32:12;101200.59;;;9.78;100.00
16120;BME280;12670;53.502;10.252;2023-02-22T07:35:16;101195.22;;;9.81;100.00
16120;BME280;12670;53.502;10.252;2023-02-22T07:38:19;101197.28;;;9.72;100.00
16120;BME280;12670;53.502;10.252;2023-02-22T07:41:24;101187.34;;;9.80;100.00
16120;BME280;12670;53.502;10.252;2023-02-22T07:44:26;101189.81;;;9.84;100.00
16120;BME280;12670;53.502;10.252;2023-02-22T07:47:29;101183.72;;;9.82;100.00
16120;BME280;12670;53.502;10.252;2023-02-22T07:50:33;101184.50;;;9.84;100.00
16120;BME280;12670;53.502;10.252;2023-02-22T07:53:36;101183.19;;;9.71;100.00
16120;BME280;12670;53.502;10.252;2023-02-22T07:56:44;101189.47;;;9.67;100.00
16120;BME280;12670;53.502;10.252;2023-02-22T07:59:47;101188.06;;;9.55;100.00
16120;BME280;12670;53.502;10.252;2023-02-22T08:02:50;101180.09;;;9.57;100.00
16120;BME280;12670;53.502;10.252;2023-02-22T08:05:55;101179.72;;;9.69;100.00
16120;BME280;12670;53.502;10.252;2023-02-22T08:08:58;101180.00;;;9.88;100.00
16120;BME280;12670;53.502;10.252;2023-02-22T08:12:03;101173.97;;;9.83;100.00
16120;BME280;12670;53.502;10.252;2023-02-22T08:15:07;101176.22;;;9.67;100.00
16120;BME280;12670;53.502;10.252;2023-02-22T08:18:11;101167.94;;;9.78;100.00
16120;BME280;12670;53.502;10.252;2023-02-22T08:21:15;101166.28;;;10.02;100.00
16120;BME280;12670;53.502;10.252;2023-02-22T08:24:18;101168.53;;;9.87;100.00
16120;BME280;12670;53.502;10.252;2023-02-22T08:27:24;101164.56;;;10.01;100.00
16120;BME280;12670;53.502;10.252;2023-02-22T08:30:28;101161.34;;;10.18;100.00
16120;BME280;12670;53.502;10.252;2023-02-22T08:33:31;101164.06;;;10.16;100.00
16120;BME280;12670;53.502;10.252;2023-02-22T08:36:33;101163.63;;;10.03;100.00
16120;BME280;12670;53.502;10.252;2023-02-22T08:39:36;101151.09;;;10.07;100.00
16120;BME280;12670;53.502;10.252;2023-02-22T08:42:40;101157.78;;;10.19;100.00
16120;BME280;12670;53.502;10.252;2023-02-22T08:45:43;101157.31;;;10.34;100.00
16120;BME280;12670;53.502;10.252;2023-02-22T08:48:49;101152.75;;;10.37;100.00
16120;BME280;12670;53.502;10.252;2023-02-22T08:51:52;101152.59;;;10.42;100.00
16120;BME280;12670;53.502;10.252;2023-02-22T08:54:55;101157.25;;;10.35;100.00
16120;BME280;12670;53.502;10.252;2023-02-22T08:57:59;101140.19;;;10.43;100.00
16120;BME280;12670;53.502;10.252;2023-02-22T09:01:03;101152.75;;;10.37;100.00
16120;BME280;12670;53.502;10.252;2023-02-22T09:04:06;101154.50;;;10.38;100.00
16120;BME280;12670;53.502;10.252;2023-02-22T09:07:09;101149.91;;;10.44;100.00
16120;BME280;12670;53.502;10.252;2023-02-22T09:10:13;101153.47;;;10.43;100.00
16120;BME280;12670;53.502;10.252;2023-02-22T09:13:18;101156.19;;;10.41;100.00
16120;BME280;12670;53.502;10.252;2023-02-22T09:16:20;101161.53;;;10.39;100.00
16120;BME280;12670;53.502;10.252;2023-02-22T09:19:23;101159.16;;;10.32;100.00
16120;BME280;12670;53.502;10.252;2023-02-22T09:22:26;101149.63;;;10.51;100.00
16120;BME280;12670;53.502;10.252;2023-02-22T09:25:28;101163.34;;;10.37;100.00
16120;BME280;12670;53.502;10.252;2023-02-22T09:28:32;101157.53;;;10.28;100.00
16120;BME280;12670;53.502;10.252;2023-02-22T09:31:36;101156.31;;;10.36;100.00
16120;BME280;12670;53.502;10.252;2023-02-22T09:34:38;101157.25;;;10.09;100.00
16120;BME280;12670;53.502;10.252;2023-02-22T09:37:46;101148.34;;;9.83;100.00
16120;BME280;12670;53.502;10.252;2023-02-22T09:40:51;101153.47;;;10.16;100.00
16120;BME280;12670;53.502;10.252;2023-02-22T09:44:08;101148.16;;;10.16;100.00
16120;BME280;12670;53.502;10.252;2023-02-22T09:47:18;101146.94;;;10.00;100.00
16120;BME280;12670;53.502;10.252;2023-02-22T09:50:23;101153.56;;;10.13;100.00
16120;BME280;12670;53.502;10.252;2023-02-22T09:53:30;101145.78;;;10.08;100.00
16120;BME280;12670;53.502;10.252;2023-02-22T09:56:36;101149.28;;;10.09;100.00
16120;BME280;12670;53.502;10.252;2023-02-22T09:59:43;101150.53;;;10.25;100.00
16120;BME280;12670;53.502;10.252;2023-02-22T10:02:51;101145.63;;;10.39;100.00
16120;BME280;12670;53.502;10.252;2023-02-22T10:06:03;101147.13;;;10.47;100.00
16120;BME280;12670;53.502;10.252;2023-02-22T10:09:10;101142.34;;;10.31;100.00
16120;BME280;12670;53.502;10.252;2023-02-22T10:12:22;101136.47;;;10.48;100.00
16120;BME280;12670;53.502;10.252;2023-02-22T10:15:41;101127.00;;;10.41;100.00
16120;BME280;12670;53.502;10.252;2023-02-22T10:19:03;101120.88;;;10.64;100.00
16120;BME280;12670;53.502;10.252;2023-02-22T10:22:33;101123.69;;;10.34;100.00
16120;BME280;12670;53.502;10.252;2023-02-22T10:25:38;101115.94;;;10.53;100.00
16120;BME280;12670;53.502;10.252;2023-02-22T10:28:43;101117.09;;;10.46;100.00
16120;BME280;12670;53.502;10.252;2023-02-22T10:31:52;101124.63;;;10.33;100.00
16120;BME280;12670;53.502;10.252;2023-02-22T10:34:59;101115.09;;;10.53;100.00
16120;BME280;12670;53.502;10.252;2023-02-22T10:38:12;101122.28;;;10.74;100.00
16120;BME280;12670;53.502;10.252;2023-02-22T10:41:21;101121.34;;;10.75;100.00
16120;BME280;12670;53.502;10.252;2023-02-22T10:44:25;101106.41;;;10.73;100.00
16120;BME280;12670;53.502;10.252;2023-02-22T10:47:31;101109.25;;;10.68;100.00
16120;BME280;12670;53.502;10.252;2023-02-22T10:50:37;101103.25;;;10.86;100.00
16120;BME280;12670;53.502;10.252;2023-02-22T10:53:41;101102.31;;;11.11;100.00
16120;BME280;12670;53.502;10.252;2023-02-22T10:56:46;101105.13;;;11.97;100.00
16120;BME280;12670;53.502;10.252;2023-02-22T10:59:49;101092.78;;;12.76;100.00
16120;BME280;12670;53.502;10.252;2023-02-22T11:02:56;101096.03;;;13.77;100.00
16120;BME280;12670;53.502;10.252;2023-02-22T11:06:17;101089.00;;;13.93;98.29
16120;BME280;12670;53.502;10.252;2023-02-22T11:09:20;101072.44;;;14.38;99.54
16120;BME280;12670;53.502;10.252;2023-02-22T11:12:29;101074.81;;;14.95;93.43
16120;BME280;12670;53.502;10.252;2023-02-22T11:15:32;101077.66;;;15.08;88.61
16120;BME280;12670;53.502;10.252;2023-02-22T11:18:37;101070.94;;;15.64;86.74
16120;BME280;12670;53.502;10.252;2023-02-22T11:21:40;101066.78;;;15.58;83.53
16120;BME280;12670;53.502;10.252;2023-02-22T11:24:45;101065.94;;;15.26;87.72
16120;BME280;12670;53.502;10.252;2023-02-22T11:27:51;101059.69;;;14.94;90.24
16120;BME280;12670;53.502;10.252;2023-02-22T11:30:54;101050.84;;;15.09;88.63
16120;BME280;12670;53.502;10.252;2023-02-22T11:34:00;101053.34;;;14.97;87.71
16120;BME280;12670;53.502;10.252;2023-02-22T11:37:24;101028.06;;;13.85;87.37
16120;BME280;12670;53.502;10.252;2023-02-22T11:40:29;101030.00;;;13.28;94.01
16120;BME280;12670;53.502;10.252;2023-02-22T11:43:35;101024.72;;;13.63;90.65
16120;BME280;12670;53.502;10.252;2023-02-22T11:46:39;101014.38;;;14.26;86.75
16120;BME280;12670;53.502;10.252;2023-02-22T11:49:44;101011.13;;;14.54;87.63
16120;BME280;12670;53.502;10.252;2023-02-22T11:52:50;101013.84;;;14.20;85.65
16120;BME280;12670;53.502;10.252;2023-02-22T11:56:07;101015.16;;;14.11;86.88
16120;BME280;12670;53.502;10.252;2023-02-22T11:59:21;100997.44;;;13.75;86.76
16120;BME280;12670;53.502;10.252;2023-02-22T12:02:38;100997.59;;;13.38;87.89
16120;BME280;12670;53.502;10.252;2023-02-22T12:06:06;100998.66;;;13.15;94.08
16120;BME280;12670;53.502;10.252;2023-02-22T12:09:15;100989.34;;;13.42;91.73
16120;BME280;12670;53.502;10.252;2023-02-22T12:12:36;100992.91;;;13.24;89.70
16120;BME280;12670;53.502;10.252;2023-02-22T12:15:46;100989.03;;;13.31;93.06
16120;BME280;12670;53.502;10.252;2023-02-22T12:19:05;100987.75;;;13.02;91.83
16120;BME280;12670;53.502;10.252;2023-02-22T12:22:16;100987.88;;;12.80;93.55
16120;BME280;12670;53.502;10.252;2023-02-22T12:25:24;100983.88;;;12.90;93.47
16120;BME280;12670;53.502;10.252;2023-02-22T12:28:32;100986.81;;;12.84;90.78
16120;BME280;12670;53.502;10.252;2023-02-22T12:31:40;100988.53;;;12.85;93.64
16120;BME280;12670;53.502;10.252;2023-02-22T12:34:48;100983.06;;;13.26;93.73
16120;BME280;12670;53.502;10.252;2023-02-22T12:38:01;100977.13;;;13.38;92.97
16120;BME280;12670;53.502;10.252;2023-02-22T12:41:08;100979.63;;;13.41;92.28
16120;BME280;12670;53.502;10.252;2023-02-22T12:44:17;100971.16;;;13.33;89.86
16120;BME280;12670;53.502;10.252;2023-02-22T12:47:28;100965.19;;;13.28;89.13
16120;BME280;12670;53.502;10.252;2023-02-22T12:50:34;100954.38;;;13.31;90.29
16120;BME280;12670;53.502;10.252;2023-02-22T12:53:44;100962.06;;;13.72;88.74
16120;BME280;12670;53.502;10.252;2023-02-22T12:56:54;100954.03;;;14.06;90.06
16120;BME280;12670;53.502;10.252;2023-02-22T13:00:06;100948.50;;;13.94;88.90
16120;BME280;12670;53.502;10.252;2023-02-22T13:03:26;100948.38;;;13.62;89.98
16120;BME280;12670;53.502;10.252;2023-02-22T13:06:37;100950.53;;;13.71;87.76
16120;BME280;12670;53.502;10.252;2023-02-22T13:09:54;100942.94;;;13.81;89.69
16120;BME280;12670;53.502;10.252;2023-02-22T13:13:03;100942.31;;;13.93;86.98
16120;BME280;12670;53.502;10.252;2023-02-22T13:16:25;100942.47;;;13.90;85.80
16120;BME280;12670;53.502;10.252;2023-02-22T13:19:38;100945.19;;;13.88;88.37
16120;BME280;12670;53.502;10.252;2023-02-22T13:22:44;100949.06;;;13.66;91.25
16120;BME280;12670;53.502;10.252;2023-02-22T13:25:52;100946.03;;;13.56;94.59
16120;BME280;12670;53.502;10.252;2023-02-22T13:29:01;100940.38;;;13.45;94.17
16120;BME280;12670;53.502;10.252;2023-02-22T13:32:28;100944.03;;;13.59;96.42
16120;BME280;12670;53.502;10.252;2023-02-22T13:35:46;100935.72;;;13.48;97.35
16120;BME280;12670;53.502;10.252;2023-02-22T13:39:18;100938.03;;;13.20;95.91
16120;BME280;12670;53.502;10.252;2023-02-22T13:42:54;100929.47;;;13.32;98.00
16120;BME280;12670;53.502;10.252;2023-02-22T13:46:27;100930.03;;;13.20;97.82
16120;BME280;12670;53.502;10.252;2023-02-22T13:49:46;100929.91;;;13.23;98.67
16120;BME280;12670;53.502;10.252;2023-02-22T13:52:56;100928.19;;;13.22;98.38
16120;BME280;12670;53.502;10.252;2023-02-22T13:55:59;100923.75;;;13.03;98.64
16120;BME280;12670;53.502;10.252;2023-02-22T13:59:03;100931.25;;;13.13;99.26
16120;BME280;12670;53.502;10.252;2023-02-22T14:02:32;100917.81;;;13.16;100.00
16120;BME280;12670;53.502;10.252;2023-02-22T14:05:48;100912.16;;;13.04;100.00
16120;BME280;12670;53.502;10.252;2023-02-22T14:08:51;100924.19;;;12.94;100.00
16120;BME280;12670;53.502;10.252;2023-02-22T14:11:54;100912.78;;;13.10;100.00
16120;BME280;12670;53.502;10.252;2023-02-22T14:15:13;100926.50;;;13.02;100.00
16120;BME280;12670;53.502;10.252;2023-02-22T14:18:34;100914.22;;;12.80;100.00
16120;BME280;12670;53.502;10.252;2023-02-22T14:21:54;100910.50;;;12.83;100.00
16120;BME280;12670;53.502;10.252;2023-02-22T14:24:57;100907.75;;;13.03;100.00
16120;BME280;12670;53.502;10.252;2023-02-22T14:28:00;100911.38;;;12.84;100.00
16120;BME280;12670;53.502;10.252;2023-02-22T14:31:07;100916.69;;;13.02;100.00
16120;BME280;12670;53.502;10.252;2023-02-22T14:34:38;100920.56;;;12.95;100.00
16120;BME280;12670;53.502;10.252;2023-02-22T14:37:47;100909.91;;;12.95;100.00
16120;BME280;12670;53.502;10.252;2023-02-22T14:40:52;100904.53;;;12.61;100.00
16120;BME280;12670;53.502;10.252;2023-02-22T14:44:01;100908.53;;;12.50;100.00
16120;BME280;12670;53.502;10.252;2023-02-22T14:47:13;100908.97;;;12.41;100.00
16120;BME280;12670;53.502;10.252;2023-02-22T14:50:23;100900.69;;;12.47;100.00
16120;BME280;12670;53.502;10.252;2023-02-22T14:53:31;100904.06;;;12.70;100.00
16120;BME280;12670;53.502;10.252;2023-02-22T14:56:40;100895.72;;;12.59;100.00
16120;BME280;12670;53.502;10.252;2023-02-22T14:59:56;100898.31;;;12.41;100.00
16120;BME280;12670;53.502;10.252;2023-02-22T15:03:04;100890.69;;;12.52;100.00
16120;BME280;12670;53.502;10.252;2023-02-22T15:06:13;100902.47;;;12.66;100.00
16120;BME280;12670;53.502;10.252;2023-02-22T15:09:18;100892.66;;;12.49;100.00
16120;BME280;12670;53.502;10.252;2023-02-22T15:12:29;100895.28;;;12.30;100.00
16120;BME280;12670;53.502;10.252;2023-02-22T15:15:32;100892.34;;;12.17;100.00
16120;BME280;12670;53.502;10.252;2023-02-22T15:18:38;100893.28;;;12.35;100.00
16120;BME280;12670;53.502;10.252;2023-02-22T15:21:44;100891.34;;;12.39;100.00
16120;BME280;12670;53.502;10.252;2023-02-22T15:24:57;100889.00;;;11.93;100.00
16120;BME280;12670;53.502;10.252;2023-02-22T15:28:01;100883.78;;;12.11;100.00
16120;BME280;12670;53.502;10.252;2023-02-22T15:31:22;100890.53;;;12.37;100.00
16120;BME280;12670;53.502;10.252;2023-02-22T15:34:28;100885.69;;;12.27;100.00
16120;BME280;12670;53.502;10.252;2023-02-22T15:37:31;100886.63;;;12.26;100.00
16120;BME280;12670;53.502;10.252;2023-02-22T15:40:34;100888.69;;;12.20;100.00
16120;BME280;12670;53.502;10.252;2023-02-22T15:43:37;100881.06;;;12.31;100.00
16120;BME280;12670;53.502;10.252;2023-02-22T15:46:41;100886.91;;;12.20;100.00
16120;BME280;12670;53.502;10.252;2023-02-22T15:49:45;100886.53;;;12.28;100.00
16120;BME280;12670;53.502;10.252;2023-02-22T15:53:25;100882.28;;;12.24;100.00
16120;BME280;12670;53.502;10.252;2023-02-22T15:56:29;100882.63;;;11.97;100.00
16120;BME280;12670;53.502;10.252;2023-02-22T15:59:41;100866.59;;;11.99;100.00
16120;BME280;12670;53.502;10.252;2023-02-22T16:02:45;100866.66;;;11.77;100.00
16120;BME280;12670;53.502;10.252;2023-02-22T16:05:51;100873.41;;;11.86;100.00
16120;BME280;12670;53.502;10.252;2023-02-22T16:08:58;100865.13;;;11.71;100.00